sensor_id;sensor_type;location;lat;lon;timestamp;temperature;humidity
3816;DHT22;1923;48.154;11.536;2023-11-21T00:00:05;9.10;99.90
3816;DHT22;1923;48.154;11.536;2023-11-21T00:02:38;9.00;99.90
3816;DHT22;1923;48.154;11.536;2023-11-21T00:05:07;8.90;99.90
3816;DHT22;1923;48.154;11.536;2023-11-21T00:07:38;8.90;99.90
3816;DHT22;1923;48.154;11.536;2023-11-21T00:10:07;8.90;99.90
3816;DHT22;1923;48.154;11.536;2023-11-21T00:12:36;8.90;99.90
3816;DHT22;1923;48.154;11.536;2023-11-21T00:15:05;8.90;99.90
3816;DHT22;1923;48.154;11.536;2023-11-21T00:17:36;8.90;99.90
3816;DHT22;1923;48.154;11.536;2023-11-21T00:20:05;8.90;99.90
3816;DHT22;1923;48.154;11.536;2023-11-21T00:22:34;8.80;99.90
3816;DHT22;1923;48.154;11.536;2023-11-21T00:25:04;8.80;99.90
3816;DHT22;1923;48.154;11.536;2023-11-21T00:27:32;8.80;99.90
3816;DHT22;1923;48.154;11.536;2023-11-21T00:30:02;8.70;99.90
3816;DHT22;1923;48.154;11.536;2023-11-21T00:32:32;8.70;99.90
3816;DHT22;1923;48.154;11.536;2023-11-21T00:35:00;8.60;99.90
3816;DHT22;1923;48.154;11.536;2023-11-21T00:37:28;8.40;99.90
3816;DHT22;1923;48.154;11.536;2023-11-21T00:39:58;8.70;99.90
3816;DHT22;1923;48.154;11.536;2023-11-21T00:42:27;8.60;99.90
3816;DHT22;1923;48.154;11.536;2023-11-21T00:44:55;8.60;99.90
3816;DHT22;1923;48.154;11.536;2023-11-21T00:47:23;8.60;99.90
3816;DHT22;1923;48.154;11.536;2023-11-21T00:49:51;8.70;99.90
3816;DHT22;1923;48.154;11.536;2023-11-21T00:52:20;8.70;99.90
3816;DHT22;1923;48.154;11.536;2023-11-21T00:54:48;8.70;99.90
3816;DHT22;1923;48.154;11.536;2023-11-21T00:57:16;8.70;99.90
3816;DHT22;1923;48.154;11.536;2023-11-21T00:59:46;8.70;99.90
3816;DHT22;1923;48.154;11.536;2023-11-21T01:02:14;8.80;99.90
3816;DHT22;1923;48.154;11.536;2023-11-21T01:04:42;8.80;99.90
3816;DHT22;1923;48.154;11.536;2023-11-21T01:07:10;8.70;99.90
3816;DHT22;1923;48.154;11.536;2023-11-21T01:09:38;8.70;99.90
3816;DHT22;1923;48.154;11.536;2023-11-21T01:12:07;8.60;99.90
3816;DHT22;1923;48.154;11.536;2023-11-21T01:14:35;8.70;99.90
3816;DHT22;1923;48.154;11.536;2023-11-21T01:17:05;8.60;99.90
3816;DHT22;1923;48.154;11.536;2023-11-21T01:19:33;8.50;99.90
3816;DHT22;1923;48.154;11.536;2023-11-21T01:22:02;8.50;99.90
3816;DHT22;1923;48.154;11.536;2023-11-21T01:24:30;8.50;99.90
3816;DHT22;1923;48.154;11.536;2023-11-21T01:26:58;8.50;99.90
3816;DHT22;1923;48.154;11.536;2023-11-21T01:29:26;8.40;99.90
3816;DHT22;1923;48.154;11.536;2023-11-21T01:31:54;8.40;99.90
3816;DHT22;1923;48.154;11.536;2023-11-21T01:34:25;8.50;99.90
3816;DHT22;1923;48.154;11.536;2023-11-21T01:36:53;8.50;99.90
3816;DHT22;1923;48.154;11.536;2023-11-21T01:39:21;8.50;99.90
3816;DHT22;1923;48.154;11.536;2023-11-21T01:41:51;8.50;99.90
3816;DHT22;1923;48.154;11.536;2023-11-21T01:44:19;8.50;99.90
3816;DHT22;1923;48.154;11.536;2023-11-21T01:46:47;8.50;99.90
3816;DHT22;1923;48.154;11.536;2023-11-21T01:49:16;8.60;99.90
3816;DHT22;1923;48.154;11.536;2023-11-21T01:51:48;8.60;99.90
3816;DHT22;1923;48.154;11.536;2023-11-21T01:54:17;8.60;99.90
3816;DHT22;1923;48.154;11.536;2023-11-21T01:56:46;8.60;99.90
3816;DHT22;1923;48.154;11.536;2023-11-21T01:59:19;8.60;99.90
3816;DHT22;1923;48.154;11.536;2023-11-21T02:01:48;8.70;99.90
3816;DHT22;1923;48.154;11.536;2023-11-21T02:04:17;8.80;99.90
3816;DHT22;1923;48.154;11.536;2023-11-21T02:06:47;8.80;99.90
3816;DHT22;1923;48.154;11.536;2023-11-21T02:09:17;8.80;99.90
3816;DHT22;1923;48.154;11.536;2023-11-21T02:11:50;8.80;99.90
3816;DHT22;1923;48.154;11.536;2023-11-21T02:14:24;8.90;99.90
3816;DHT22;1923;48.154;11.536;2023-11-21T02:16:54;8.90;99.90
3816;DHT22;1923;48.154;11.536;2023-11-21T02:19:24;8.90;99.90
3816;DHT22;1923;48.154;11.536;2023-11-21T02:21:53;8.90;99.90
3816;DHT22;1923;48.154;11.536;2023-11-21T02:24:24;8.80;99.90
3816;DHT22;1923;48.154;11.536;2023-11-21T02:26:52;8.90;99.90
3816;DHT22;1923;48.154;11.536;2023-11-21T02:29:20;8.90;99.90
3816;DHT22;1923;48.154;11.536;2023-11-21T02:31:52;8.90;99.90
3816;DHT22;1923;48.154;11.536;2023-11-21T02:34:22;8.90;99.90
3816;DHT22;1923;48.154;11.536;2023-11-21T02:36:52;8.80;99.90
3816;DHT22;1923;48.154;11.536;2023-11-21T02:39:22;8.90;99.90
3816;DHT22;1923;48.154;11.536;2023-11-21T02:41:51;8.80;99.90
3816;DHT22;1923;48.154;11.536;2023-11-21T02:44:20;8.70;99.90
3816;DHT22;1923;48.154;11.536;2023-11-21T02:46:48;8.70;99.90
3816;DHT22;1923;48.154;11.536;2023-11-21T02:49:16;8.70;99.90
3816;DHT22;1923;48.154;11.536;2023-11-21T02:51:44;8.80;99.90
3816;DHT22;1923;48.154;11.536;2023-11-21T02:54:12;8.90;99.90
3816;DHT22;1923;48.154;11.536;2023-11-21T02:56:44;8.70;99.90
3816;DHT22;1923;48.154;11.536;2023-11-21T02:59:12;8.70;99.90
3816;DHT22;1923;48.154;11.536;2023-11-21T03:01:40;8.70;99.90
3816;DHT22;1923;48.154;11.536;2023-11-21T03:04:08;8.70;99.90
3816;DHT22;1923;48.154;11.536;2023-11-21T03:06:36;8.70;99.90
3816;DHT22;1923;48.154;11.536;2023-11-21T03:09:05;8.60;99.90
3816;DHT22;1923;48.154;11.536;2023-11-21T03:11:33;8.60;99.90
3816;DHT22;1923;48.154;11.536;2023-11-21T03:14:07;8.70;99.90
3816;DHT22;1923;48.154;11.536;2023-11-21T03:16:35;8.70;99.90
3816;DHT22;1923;48.154;11.536;2023-11-21T03:19:05;8.60;99.90
3816;DHT22;1923;48.154;11.536;2023-11-21T03:21:35;8.70;99.90
3816;DHT22;1923;48.154;11.536;2023-11-21T03:24:05;8.70;99.90
3816;DHT22;1923;48.154;11.536;2023-11-21T03:26:34;8.60;99.90
3816;DHT22;1923;48.154;11.536;2023-11-21T03:29:02;8.60;99.90
3816;DHT22;1923;48.154;11.536;2023-11-21T03:31:32;8.60;99.90
3816;DHT22;1923;48.154;11.536;2023-11-21T03:34:01;8.70;99.90
3816;DHT22;1923;48.154;11.536;2023-11-21T03:36:29;8.70;99.90
3816;DHT22;1923;48.154;11.536;2023-11-21T03:38:57;8.70;99.90
3816;DHT22;1923;48.154;11.536;2023-11-21T03:41:25;8.60;99.90
3816;DHT22;1923;48.154;11.536;2023-11-21T03:43:53;8.60;99.90
3816;DHT22;1923;48.154;11.536;2023-11-21T03:46:21;8.60;99.90
3816;DHT22;1923;48.154;11.536;2023-11-21T03:48:51;8.70;99.90
3816;DHT22;1923;48.154;11.536;2023-11-21T03:51:18;8.70;99.90
3816;DHT22;1923;48.154;11.536;2023-11-21T03:53:46;8.70;99.90
3816;DHT22;1923;48.154;11.536;2023-11-21T03:56:14;8.50;99.90
3816;DHT22;1923;48.154;11.536;2023-11-21T03:58:42;8.60;99.90
3816;DHT22;1923;48.154;11.536;2023-11-21T04:01:10;8.50;99.90
3816;DHT22;1923;48.154;11.536;2023-11-21T04:03:38;8.40;99.90
3816;DHT22;1923;48.154;11.536;2023-11-21T04:06:09;8.30;99.90
3816;DHT22;1923;48.154;11.536;2023-11-21T04:08:37;8.30;99.90
3816;DHT22;1923;48.154;11.536;2023-11-21T04:11:05;8.30;99.90
3816;DHT22;1923;48.154;11.536;2023-11-21T04:13:33;8.20;99.90
3816;DHT22;1923;48.154;11.536;2023-11-21T04:16:01;8.20;99.90
3816;DHT22;1923;48.154;11.536;2023-11-21T04:18:30;8.20;99.90
3816;DHT22;1923;48.154;11.536;2023-11-21T04:20:58;8.20;99.90
3816;DHT22;1923;48.154;11.536;2023-11-21T04:23:29;8.20;99.90
3816;DHT22;1923;48.154;11.536;2023-11-21T04:25:58;8.30;99.90
3816;DHT22;1923;48.154;11.536;2023-11-21T04:28:26;8.30;99.90
3816;DHT22;1923;48.154;11.536;2023-11-21T04:30:54;8.30;99.90
3816;DHT22;1923;48.154;11.536;2023-11-21T04:33:22;8.30;99.90
3816;DHT22;1923;48.154;11.536;2023-11-21T04:35:50;8.40;99.90
3816;DHT22;1923;48.154;11.536;2023-11-21T04:38:18;8.30;99.90
3816;DHT22;1923;48.154;11.536;2023-11-21T04:40:48;8.30;99.90
3816;DHT22;1923;48.154;11.536;2023-11-21T04:43:16;8.40;99.90
3816;DHT22;1923;48.154;11.536;2023-11-21T04:45:44;8.40;99.90
3816;DHT22;1923;48.154;11.536;2023-11-21T04:48:13;8.40;99.90
3816;DHT22;1923;48.154;11.536;2023-11-21T04:50:41;8.40;99.90
3816;DHT22;1923;48.154;11.536;2023-11-21T04:53:09;8.50;99.90
3816;DHT22;1923;48.154;11.536;2023-11-21T04:55:40;8.50;99.90
3816;DHT22;1923;48.154;11.536;2023-11-21T04:58:09;8.60;99.90
3816;DHT22;1923;48.154;11.536;2023-11-21T05:00:38;8.60;99.90
3816;DHT22;1923;48.154;11.536;2023-11-21T05:03:07;8.50;99.90
3816;DHT22;1923;48.154;11.536;2023-11-21T05:05:36;8.60;99.90
3816;DHT22;1923;48.154;11.536;2023-11-21T05:08:04;8.50;99.90
3816;DHT22;1923;48.154;11.536;2023-11-21T05:10:34;8.60;99.90
3816;DHT22;1923;48.154;11.536;2023-11-21T05:13:05;8.60;99.90
3816;DHT22;1923;48.154;11.536;2023-11-21T05:15:38;8.60;99.90
3816;DHT22;1923;48.154;11.536;2023-11-21T05:18:06;8.70;99.90
3816;DHT22;1923;48.154;11.536;2023-11-21T05:20:34;8.70;99.90
3816;DHT22;1923;48.154;11.536;2023-11-21T05:23:02;8.70;99.90
3816;DHT22;1923;48.154;11.536;2023-11-21T05:25:30;8.50;99.90
3816;DHT22;1923;48.154;11.536;2023-11-21T05:27:59;8.60;99.90
3816;DHT22;1923;48.154;11.536;2023-11-21T05:30:28;8.60;99.90
3816;DHT22;1923;48.154;11.536;2023-11-21T05:32:57;8.60;99.90
3816;DHT22;1923;48.154;11.536;2023-11-21T05:35:25;8.60;99.90
3816;DHT22;1923;48.154;11.536;2023-11-21T05:37:53;8.60;99.90
3816;DHT22;1923;48.154;11.536;2023-11-21T05:40:22;8.60;99.90
3816;DHT22;1923;48.154;11.536;2023-11-21T05:42:53;8.60;99.90
3816;DHT22;1923;48.154;11.536;2023-11-21T05:45:21;8.70;99.90
3816;DHT22;1923;48.154;11.536;2023-11-21T05:47:49;8.70;99.90
3816;DHT22;1923;48.154;11.536;2023-11-21T05:50:18;8.70;99.90
3816;DHT22;1923;48.154;11.536;2023-11-21T05:52:47;8.70;99.90
3816;DHT22;1923;48.154;11.536;2023-11-21T05:55:16;8.60;99.90
3816;DHT22;1923;48.154;11.536;2023-11-21T05:57:44;8.70;99.90
3816;DHT22;1923;48.154;11.536;2023-11-21T06:00:13;8.80;99.90
3816;DHT22;1923;48.154;11.536;2023-11-21T06:02:48;8.80;99.90
3816;DHT22;1923;48.154;11.536;2023-11-21T06:05:22;8.90;99.90
3816;DHT22;1923;48.154;11.536;2023-11-21T06:07:52;8.80;99.90
3816;DHT22;1923;48.154;11.536;2023-11-21T06:10:21;8.70;99.90
3816;DHT22;1923;48.154;11.536;2023-11-21T06:12:51;8.70;99.90
3816;DHT22;1923;48.154;11.536;2023-11-21T06:15:20;8.70;99.90
3816;DHT22;1923;48.154;11.536;2023-11-21T06:17:52;8.70;99.90
3816;DHT22;1923;48.154;11.536;2023-11-21T06:20:22;8.70;99.90
3816;DHT22;1923;48.154;11.536;2023-11-21T06:22:50;8.60;99.90
3816;DHT22;1923;48.154;11.536;2023-11-21T06:25:19;8.60;99.90
3816;DHT22;1923;48.154;11.536;2023-11-21T06:27:48;8.50;99.90
3816;DHT22;1923;48.154;11.536;2023-11-21T06:30:17;8.50;99.90
3816;DHT22;1923;48.154;11.536;2023-11-21T06:32:46;8.60;99.90
3816;DHT22;1923;48.154;11.536;2023-11-21T06:35:15;8.70;99.90
3816;DHT22;1923;48.154;11.536;2023-11-21T06:37:45;8.70;99.90
3816;DHT22;1923;48.154;11.536;2023-11-21T06:40:17;8.80;99.90
3816;DHT22;1923;48.154;11.536;2023-11-21T06:42:47;8.70;99.90
3816;DHT22;1923;48.154;11.536;2023-11-21T06:45:16;8.70;99.90
3816;DHT22;1923;48.154;11.536;2023-11-21T06:47:44;8.80;99.90
3816;DHT22;1923;48.154;11.536;2023-11-21T06:50:15;8.80;99.90
3816;DHT22;1923;48.154;11.536;2023-11-21T06:52:44;8.90;99.90
3816;DHT22;1923;48.154;11.536;2023-11-21T06:55:12;8.90;99.90
3816;DHT22;1923;48.154;11.536;2023-11-21T06:57:41;9.00;99.90
3816;DHT22;1923;48.154;11.536;2023-11-21T07:00:10;8.90;99.90
3816;DHT22;1923;48.154;11.536;2023-11-21T07:02:38;8.80;99.90
3816;DHT22;1923;48.154;11.536;2023-11-21T07:05:07;8.90;99.90
3816;DHT22;1923;48.154;11.536;2023-11-21T07:07:35;8.90;99.90
3816;DHT22;1923;48.154;11.536;2023-11-21T07:10:06;8.90;99.90
3816;DHT22;1923;48.154;11.536;2023-11-21T07:12:36;8.90;99.90
3816;DHT22;1923;48.154;11.536;2023-11-21T07:15:04;8.90;99.90
3816;DHT22;1923;48.154;11.536;2023-11-21T07:17:36;8.90;99.90
3816;DHT22;1923;48.154;11.536;2023-11-21T07:20:07;8.90;99.90
3816;DHT22;1923;48.154;11.536;2023-11-21T07:22:36;9.00;99.90
3816;DHT22;1923;48.154;11.536;2023-11-21T07:25:06;9.00;99.90
3816;DHT22;1923;48.154;11.536;2023-11-21T07:27:36;9.00;99.90
3816;DHT22;1923;48.154;11.536;2023-11-21T07:30:05;8.90;99.90
3816;DHT22;1923;48.154;11.536;2023-11-21T07:32:34;8.90;99.90
3816;DHT22;1923;48.154;11.536;2023-11-21T07:35:03;9.00;99.90
3816;DHT22;1923;48.154;11.536;2023-11-21T07:37:31;9.00;99.90
3816;DHT22;1923;48.154;11.536;2023-11-21T07:39:59;9.10;99.90
3816;DHT22;1923;48.154;11.536;2023-11-21T07:42:29;9.10;99.90
3816;DHT22;1923;48.154;11.536;2023-11-21T07:44:57;9.30;99.90
3816;DHT22;1923;48.154;11.536;2023-11-21T07:47:25;9.50;99.90
3816;DHT22;1923;48.154;11.536;2023-11-21T07:49:54;9.60;99.90
3816;DHT22;1923;48.154;11.536;2023-11-21T07:52:23;9.70;99.90
3816;DHT22;1923;48.154;11.536;2023-11-21T07:54:51;9.80;99.90
3816;DHT22;1923;48.154;11.536;2023-11-21T07:57:19;9.80;99.90
3816;DHT22;1923;48.154;11.536;2023-11-21T07:59:49;10.00;99.90
3816;DHT22;1923;48.154;11.536;2023-11-21T08:02:17;10.00;99.90
3816;DHT22;1923;48.154;11.536;2023-11-21T08:04:45;10.10;99.90
3816;DHT22;1923;48.154;11.536;2023-11-21T08:07:16;10.20;99.90
3816;DHT22;1923;48.154;11.536;2023-11-21T08:09:44;10.20;99.90
3816;DHT22;1923;48.154;11.536;2023-11-21T08:12:14;10.20;99.90
3816;DHT22;1923;48.154;11.536;2023-11-21T08:14:42;10.20;99.90
3816;DHT22;1923;48.154;11.536;2023-11-21T08:17:12;10.30;99.90
3816;DHT22;1923;48.154;11.536;2023-11-21T08:19:42;10.20;99.90
3816;DHT22;1923;48.154;11.536;2023-11-21T08:22:14;10.10;99.90
3816;DHT22;1923;48.154;11.536;2023-11-21T08:24:42;10.10;99.90
3816;DHT22;1923;48.154;11.536;2023-11-21T08:27:10;10.00;99.90
3816;DHT22;1923;48.154;11.536;2023-11-21T08:29:38;10.10;99.90
3816;DHT22;1923;48.154;11.536;2023-11-21T08:32:06;10.10;99.90
3816;DHT22;1923;48.154;11.536;2023-11-21T08:34:36;10.10;99.90
3816;DHT22;1923;48.154;11.536;2023-11-21T08:37:07;10.20;99.90
3816;DHT22;1923;48.154;11.536;2023-11-21T08:39:36;10.30;99.90
3816;DHT22;1923;48.154;11.536;2023-11-21T08:42:04;10.50;99.90
3816;DHT22;1923;48.154;11.536;2023-11-21T08:44:33;10.60;99.90
3816;DHT22;1923;48.154;11.536;2023-11-21T08:47:01;10.60;99.90
3816;DHT22;1923;48.154;11.536;2023-11-21T08:49:31;10.70;99.90
3816;DHT22;1923;48.154;11.536;2023-11-21T08:52:00;10.80;99.90
3816;DHT22;1923;48.154;11.536;2023-11-21T08:54:28;10.90;99.90
3816;DHT22;1923;48.154;11.536;2023-11-21T08:56:58;11.00;99.90
3816;DHT22;1923;48.154;11.536;2023-11-21T08:59:26;11.20;99.90
3816;DHT22;1923;48.154;11.536;2023-11-21T09:01:54;11.40;99.90
3816;DHT22;1923;48.154;11.536;2023-11-21T09:04:23;11.60;99.90
3816;DHT22;1923;48.154;11.536;2023-11-21T09:06:51;12.00;99.90
3816;DHT22;1923;48.154;11.536;2023-11-21T09:09:21;12.50;99.90
3816;DHT22;1923;48.154;11.536;2023-11-21T09:11:51;12.90;99.90
3816;DHT22;1923;48.154;11.536;2023-11-21T09:14:19;13.00;99.90
3816;DHT22;1923;48.154;11.536;2023-11-21T09:16:47;13.00;99.90
3816;DHT22;1923;48.154;11.536;2023-11-21T09:19:16;13.10;99.90
3816;DHT22;1923;48.154;11.536;2023-11-21T09:21:44;13.10;99.90
3816;DHT22;1923;48.154;11.536;2023-11-21T09:24:12;13.00;99.90
3816;DHT22;1923;48.154;11.536;2023-11-21T09:26:41;13.00;99.90
3816;DHT22;1923;48.154;11.536;2023-11-21T09:29:10;12.80;99.90
3816;DHT22;1923;48.154;11.536;2023-11-21T09:31:38;12.70;99.90
3816;DHT22;1923;48.154;11.536;2023-11-21T09:34:06;12.70;99.90
3816;DHT22;1923;48.154;11.536;2023-11-21T09:36:34;12.60;99.90
3816;DHT22;1923;48.154;11.536;2023-11-21T09:39:02;12.70;99.90
3816;DHT22;1923;48.154;11.536;2023-11-21T09:41:43;12.80;99.90
3816;DHT22;1923;48.154;11.536;2023-11-21T09:44:14;13.00;99.90
3816;DHT22;1923;48.154;11.536;2023-11-21T09:46:44;13.60;99.90
3816;DHT22;1923;48.154;11.536;2023-11-21T09:49:19;14.20;99.90
3816;DHT22;1923;48.154;11.536;2023-11-21T09:51:48;14.70;99.90
3816;DHT22;1923;48.154;11.536;2023-11-21T09:54:18;15.00;99.90
3816;DHT22;1923;48.154;11.536;2023-11-21T09:56:49;15.70;99.90
3816;DHT22;1923;48.154;11.536;2023-11-21T09:59:17;16.60;99.90
3816;DHT22;1923;48.154;11.536;2023-11-21T10:01:45;16.90;99.90
3816;DHT22;1923;48.154;11.536;2023-11-21T10:04:14;16.80;99.90
3816;DHT22;1923;48.154;11.536;2023-11-21T10:06:43;17.10;99.90
3816;DHT22;1923;48.154;11.536;2023-11-21T10:09:14;17.60;99.90
3816;DHT22;1923;48.154;11.536;2023-11-21T10:11:43;17.50;99.90
3816;DHT22;1923;48.154;11.536;2023-11-21T10:14:12;17.20;99.90
3816;DHT22;1923;48.154;11.536;2023-11-21T10:16:41;16.50;99.90
3816;DHT22;1923;48.154;11.536;2023-11-21T10:19:14;16.00;99.90
3816;DHT22;1923;48.154;11.536;2023-11-21T10:21:44;15.50;99.90
3816;DHT22;1923;48.154;11.536;2023-11-21T10:24:12;14.90;99.90
3816;DHT22;1923;48.154;11.536;2023-11-21T10:26:40;14.60;99.90
3816;DHT22;1923;48.154;11.536;2023-11-21T10:29:20;14.10;99.90
3816;DHT22;1923;48.154;11.536;2023-11-21T10:31:49;13.80;99.90
3816;DHT22;1923;48.154;11.536;2023-11-21T10:34:19;13.80;99.90
3816;DHT22;1923;48.154;11.536;2023-11-21T10:36:48;13.70;99.90
3816;DHT22;1923;48.154;11.536;2023-11-21T10:39:17;13.60;99.90
3816;DHT22;1923;48.154;11.536;2023-11-21T10:41:46;13.40;99.90
3816;DHT22;1923;48.154;11.536;2023-11-21T10:44:15;13.40;99.90
3816;DHT22;1923;48.154;11.536;2023-11-21T10:46:50;13.40;99.90
3816;DHT22;1923;48.154;11.536;2023-11-21T10:49:21;13.50;99.90
3816;DHT22;1923;48.154;11.536;2023-11-21T10:51:51;13.30;99.90
3816;DHT22;1923;48.154;11.536;2023-11-21T10:54:20;13.00;99.90
3816;DHT22;1923;48.154;11.536;2023-11-21T10:56:50;12.80;99.90
3816;DHT22;1923;48.154;11.536;2023-11-21T10:59:19;12.50;99.90
3816;DHT22;1923;48.154;11.536;2023-11-21T11:01:54;12.50;99.90
3816;DHT22;1923;48.154;11.536;2023-11-21T11:04:27;12.50;99.90
3816;DHT22;1923;48.154;11.536;2023-11-21T11:06:57;12.50;99.90
3816;DHT22;1923;48.154;11.536;2023-11-21T11:09:28;12.50;99.90
3816;DHT22;1923;48.154;11.536;2023-11-21T11:11:59;12.70;99.90
3816;DHT22;1923;48.154;11.536;2023-11-21T11:14:28;12.80;99.90
3816;DHT22;1923;48.154;11.536;2023-11-21T11:16:58;12.70;99.90
3816;DHT22;1923;48.154;11.536;2023-11-21T11:19:28;12.80;99.90
3816;DHT22;1923;48.154;11.536;2023-11-21T11:22:07;12.90;99.90
3816;DHT22;1923;48.154;11.536;2023-11-21T11:24:49;13.10;99.90
3816;DHT22;1923;48.154;11.536;2023-11-21T11:27:28;13.00;99.90
3816;DHT22;1923;48.154;11.536;2023-11-21T11:30:18;13.00;99.90
3816;DHT22;1923;48.154;11.536;2023-11-21T11:32:58;13.00;99.90
3816;DHT22;1923;48.154;11.536;2023-11-21T11:35:32;13.10;99.90
3816;DHT22;1923;48.154;11.536;2023-11-21T11:38:01;13.20;99.90
3816;DHT22;1923;48.154;11.536;2023-11-21T11:40:39;13.20;99.90
3816;DHT22;1923;48.154;11.536;2023-11-21T11:43:09;13.20;99.90
3816;DHT22;1923;48.154;11.536;2023-11-21T11:45:37;12.90;99.90
3816;DHT22;1923;48.154;11.536;2023-11-21T11:48:11;13.00;99.90
3816;DHT22;1923;48.154;11.536;2023-11-21T11:53:25;13.00;99.90
3816;DHT22;1923;48.154;11.536;2023-11-21T11:56:07;13.00;99.90
3816;DHT22;1923;48.154;11.536;2023-11-21T11:58:47;12.90;99.90
3816;DHT22;1923;48.154;11.536;2023-11-21T12:01:17;12.80;99.90
3816;DHT22;1923;48.154;11.536;2023-11-21T12:06:52;12.60;99.90
3816;DHT22;1923;48.154;11.536;2023-11-21T12:09:23;12.50;99.90
3816;DHT22;1923;48.154;11.536;2023-11-21T12:11:53;12.40;99.90
3816;DHT22;1923;48.154;11.536;2023-11-21T12:14:23;12.60;99.90
3816;DHT22;1923;48.154;11.536;2023-11-21T12:16:52;12.50;99.90
3816;DHT22;1923;48.154;11.536;2023-11-21T12:19:20;12.60;99.90
3816;DHT22;1923;48.154;11.536;2023-11-21T12:21:49;12.60;99.90
3816;DHT22;1923;48.154;11.536;2023-11-21T12:24:19;12.70;99.90
3816;DHT22;1923;48.154;11.536;2023-11-21T12:26:47;12.80;99.90
3816;DHT22;1923;48.154;11.536;2023-11-21T12:29:15;12.90;99.90
3816;DHT22;1923;48.154;11.536;2023-11-21T12:31:43;12.90;99.90
3816;DHT22;1923;48.154;11.536;2023-11-21T12:34:12;12.90;99.90
3816;DHT22;1923;48.154;11.536;2023-11-21T12:36:40;13.10;99.90
3816;DHT22;1923;48.154;11.536;2023-11-21T12:39:08;13.10;99.90
3816;DHT22;1923;48.154;11.536;2023-11-21T12:41:39;12.70;99.90
3816;DHT22;1923;48.154;11.536;2023-11-21T12:44:11;12.60;99.90
3816;DHT22;1923;48.154;11.536;2023-11-21T12:46:42;12.20;99.90
3816;DHT22;1923;48.154;11.536;2023-11-21T12:49:13;12.10;99.90
3816;DHT22;1923;48.154;11.536;2023-11-21T12:51:45;11.90;99.90
3816;DHT22;1923;48.154;11.536;2023-11-21T12:54:14;11.60;99.90
3816;DHT22;1923;48.154;11.536;2023-11-21T12:56:46;11.40;99.90
3816;DHT22;1923;48.154;11.536;2023-11-21T12:59:16;11.20;99.90
3816;DHT22;1923;48.154;11.536;2023-11-21T13:01:45;11.10;99.90
3816;DHT22;1923;48.154;11.536;2023-11-21T13:04:14;11.00;99.90
3816;DHT22;1923;48.154;11.536;2023-11-21T13:06:42;11.00;99.90
3816;DHT22;1923;48.154;11.536;2023-11-21T13:09:10;10.90;99.90
3816;DHT22;1923;48.154;11.536;2023-11-21T13:11:41;10.90;99.90
3816;DHT22;1923;48.154;11.536;2023-11-21T13:14:13;11.00;99.90
3816;DHT22;1923;48.154;11.536;2023-11-21T13:16:41;11.00;99.90
3816;DHT22;1923;48.154;11.536;2023-11-21T13:19:13;11.00;99.90
3816;DHT22;1923;48.154;11.536;2023-11-21T13:21:41;11.10;99.90
3816;DHT22;1923;48.154;11.536;2023-11-21T13:24:10;11.10;99.90
3816;DHT22;1923;48.154;11.536;2023-11-21T13:26:38;11.10;99.90
3816;DHT22;1923;48.154;11.536;2023-11-21T13:29:07;11.10;99.90
3816;DHT22;1923;48.154;11.536;2023-11-21T13:31:37;11.10;99.90
3816;DHT22;1923;48.154;11.536;2023-11-21T13:34:05;11.10;99.90
3816;DHT22;1923;48.154;11.536;2023-11-21T13:36:35;11.10;99.90
3816;DHT22;1923;48.154;11.536;2023-11-21T13:39:03;11.10;99.90
3816;DHT22;1923;48.154;11.536;2023-11-21T13:41:35;11.10;99.90
3816;DHT22;1923;48.154;11.536;2023-11-21T13:44:06;11.20;99.90
3816;DHT22;1923;48.154;11.536;2023-11-21T13:46:44;11.10;99.90
3816;DHT22;1923;48.154;11.536;2023-11-21T13:49:13;11.10;99.90
3816;DHT22;1923;48.154;11.536;2023-11-21T13:51:43;11.10;99.90
3816;DHT22;1923;48.154;11.536;2023-11-21T13:54:12;11.00;99.90
3816;DHT22;1923;48.154;11.536;2023-11-21T13:56:41;11.00;99.90
3816;DHT22;1923;48.154;11.536;2023-11-21T13:59:12;10.80;99.90
3816;DHT22;1923;48.154;11.536;2023-11-21T14:01:50;10.70;99.90
3816;DHT22;1923;48.154;11.536;2023-11-21T14:04:24;10.60;99.90
3816;DHT22;1923;48.154;11.536;2023-11-21T14:07:12;10.40;99.90
3816;DHT22;1923;48.154;11.536;2023-11-21T14:09:49;10.30;99.90
3816;DHT22;1923;48.154;11.536;2023-11-21T14:12:19;10.20;99.90
3816;DHT22;1923;48.154;11.536;2023-11-21T14:14:48;10.20;99.90
3816;DHT22;1923;48.154;11.536;2023-11-21T14:17:17;10.20;99.90
3816;DHT22;1923;48.154;11.536;2023-11-21T14:19:49;10.00;99.90
3816;DHT22;1923;48.154;11.536;2023-11-21T14:22:17;9.90;99.90
3816;DHT22;1923;48.154;11.536;2023-11-21T14:24:45;9.90;99.90
3816;DHT22;1923;48.154;11.536;2023-11-21T14:27:13;9.70;99.90
3816;DHT22;1923;48.154;11.536;2023-11-21T14:29:42;9.60;99.90
3816;DHT22;1923;48.154;11.536;2023-11-21T14:32:12;9.60;99.90
3816;DHT22;1923;48.154;11.536;2023-11-21T14:34:42;9.70;99.90
3816;DHT22;1923;48.154;11.536;2023-11-21T14:37:14;9.70;99.90
3816;DHT22;1923;48.154;11.536;2023-11-21T14:39:42;9.70;99.90
3816;DHT22;1923;48.154;11.536;2023-11-21T14:42:12;9.60;99.90
3816;DHT22;1923;48.154;11.536;2023-11-21T14:44:42;9.40;99.90
3816;DHT22;1923;48.154;11.536;2023-11-21T14:47:10;9.40;99.90
3816;DHT22;1923;48.154;11.536;2023-11-21T14:49:45;9.40;99.90
3816;DHT22;1923;48.154;11.536;2023-11-21T14:52:20;9.40;99.90
3816;DHT22;1923;48.154;11.536;2023-11-21T14:55:00;9.40;99.90
3816;DHT22;1923;48.154;11.536;2023-11-21T14:57:48;9.40;99.90
3816;DHT22;1923;48.154;11.536;2023-11-21T15:00:18;9.40;99.90
3816;DHT22;1923;48.154;11.536;2023-11-21T15:03:05;9.30;99.90
3816;DHT22;1923;48.154;11.536;2023-11-21T15:05:36;9.40;99.90
3816;DHT22;1923;48.154;11.536;2023-11-21T15:08:05;9.40;99.90
3816;DHT22;1923;48.154;11.536;2023-11-21T15:10:47;9.40;99.90
3816;DHT22;1923;48.154;11.536;2023-11-21T15:13:19;9.40;99.90
3816;DHT22;1923;48.154;11.536;2023-11-21T15:15:48;9.30;99.90
3816;DHT22;1923;48.154;11.536;2023-11-21T15:18:19;9.40;99.90
3816;DHT22;1923;48.154;11.536;2023-11-21T15:20:48;9.40;99.90
3816;DHT22;1923;48.154;11.536;2023-11-21T15:23:16;9.40;99.90
3816;DHT22;1923;48.154;11.536;2023-11-21T15:25:46;9.40;99.90
3816;DHT22;1923;48.154;11.536;2023-11-21T15:28:17;9.40;99.90
3816;DHT22;1923;48.154;11.536;2023-11-21T15:30:45;9.40;99.90
3816;DHT22;1923;48.154;11.536;2023-11-21T15:33:15;9.40;99.90
3816;DHT22;1923;48.154;11.536;2023-11-21T15:35:43;9.40;99.90
3816;DHT22;1923;48.154;11.536;2023-11-21T15:38:12;9.40;99.90
3816;DHT22;1923;48.154;11.536;2023-11-21T15:40:40;9.50;99.90
3816;DHT22;1923;48.154;11.536;2023-11-21T15:43:10;9.60;99.90
3816;DHT22;1923;48.154;11.536;2023-11-21T15:45:38;9.60;99.90
3816;DHT22;1923;48.154;11.536;2023-11-21T15:48:07;9.40;99.90
3816;DHT22;1923;48.154;11.536;2023-11-21T15:50:36;9.30;99.90
3816;DHT22;1923;48.154;11.536;2023-11-21T15:53:04;9.40;99.90
3816;DHT22;1923;48.154;11.536;2023-11-21T15:55:35;9.30;99.90
3816;DHT22;1923;48.154;11.536;2023-11-21T15:58:09;9.20;99.90
3816;DHT22;1923;48.154;11.536;2023-11-21T16:00:37;9.10;99.90
3816;DHT22;1923;48.154;11.536;2023-11-21T16:03:05;9.00;99.90
3816;DHT22;1923;48.154;11.536;2023-11-21T16:05:33;9.00;99.90
3816;DHT22;1923;48.154;11.536;2023-11-21T16:08:03;9.00;99.90
3816;DHT22;1923;48.154;11.536;2023-11-21T16:10:31;9.00;99.90
3816;DHT22;1923;48.154;11.536;2023-11-21T16:13:00;8.90;99.90
3816;DHT22;1923;48.154;11.536;2023-11-21T16:15:29;8.90;99.90